Portada
METAR-TAF:

METAR-TAF

Aeropuertos :

Raymond, Misisipi, Estados Unidos

latitud: 32-18-16N, longitud: 090-24-38W, altitud: 75 m

Observación

El informe se hizo hace 22 minutos, a las 18:35 UTC
Viento 8 kt del norte con ráfagas de 15 kt, variando entre norte-noroeste y norte-noreste
Temperatura 6°C
Humedad 100%
Presión 1026 hPa
Visibilidad: 16.1 km
llovizna ligera

METAR: KJVW 201835Z AUTO 36008G15KT 330V030 10SM -DZ 06/06 A3029 RMK AO2

Hora: 12:57 (18:57 UTC)


TAF: falta

Observaciones y pronósticos meteorológicos de más de 4000 aeropuertos (mensajes METAR y TAF).

Los puntos amarillos y rojos representan las estaciones disponibles.

Ponga el ratón en el punto deseado para ver el nombre de la estación.

Haga clic para ver las observaciones y los pronósticos meteorológicos.

Para cambiar el mapa : haga clic en los botones verdes con una cruz de color negro para hacer un zoom, en el botón verde con un guión para alejar o en las flechas verdes para mapas adyacentes.


METAR-TAF: